Time;durP1;ratioP1;P1;durP2;ratioP2;P2;SDS_P1;SDS_P2;PMS_P1;PMS_P2;Temp;Humidity;BMP_temperature;BMP_pressure;BME280_temperature;BME280_humidity;BME280_pressure;Samples;Min_cycle;Max_cycle;Signal;HPM_P1;HPM_P2
2022/03/25 00:01:15;;;;;;;8.00;7.20;;;;;;;12.60;23.61;95228.44;5139020;27;20179;-68
2022/03/25 00:03:41;;;;;;;9.40;7.82;;;;;;;12.57;23.85;95234.69;5138996;27;20211;-68
2022/03/25 00:06:08;;;;;;;8.18;7.30;;;;;;;12.55;23.75;95231.47;5121102;27;20202;-67
2022/03/25 00:08:35;;;;;;;8.18;7.38;;;;;;;12.56;24.01;95223.97;5120658;27;20191;-69
2022/03/25 00:11:02;;;;;;;8.23;7.15;;;;;;;12.57;23.88;95217.28;5120835;27;20191;-69
2022/03/25 00:13:29;;;;;;;8.10;7.30;;;;;;;12.58;23.66;95213.34;5154766;27;20195;-69
2022/03/25 00:15:56;;;;;;;8.63;6.80;;;;;;;12.57;23.66;95212.56;5120735;27;20256;-69
2022/03/25 00:18:24;;;;;;;9.25;7.05;;;;;;;12.58;23.84;95208.63;5154777;27;20259;-69
2022/03/25 00:20:50;;;;;;;7.43;6.38;;;;;;;12.58;23.68;95210.59;5120690;27;20584;-69
2022/03/25 00:23:17;;;;;;;7.72;7.03;;;;;;;12.59;23.75;95209.41;5138375;27;20291;-69
2022/03/25 00:25:44;;;;;;;8.27;7.38;;;;;;;12.56;23.72;95202.63;5138395;27;20179;-68
2022/03/25 00:28:11;;;;;;;8.23;7.32;;;;;;;12.56;23.82;95197.09;5138665;27;20314;-68
2022/03/25 00:30:38;;;;;;;7.85;7.15;;;;;;;12.54;23.76;95199.44;5138651;27;20210;-69
2022/03/25 00:33:05;;;;;;;7.82;6.82;;;;;;;12.55;23.85;95203.81;5138458;27;20368;-68
2022/03/25 00:35:33;;;;;;;8.13;6.63;;;;;;;12.56;23.80;95199.84;5120059;27;20618;-67
2022/03/25 00:38:00;;;;;;;9.25;6.80;;;;;;;12.57;23.80;95195.94;5120809;27;20195;-67
2022/03/25 00:40:27;;;;;;;8.25;6.85;;;;;;;12.57;23.91;95195.94;5138382;27;20193;-67
2022/03/25 00:42:54;;;;;;;7.57;6.75;;;;;;;12.56;23.95;95199.06;5120281;27;20222;-67
2022/03/25 00:45:22;;;;;;;7.38;6.70;;;;;;;12.58;23.96;95194.78;5138223;27;20187;-67
2022/03/25 00:47:49;;;;;;;7.35;6.65;;;;;;;12.56;23.93;95190.75;5137987;27;20187;-68
2022/03/25 00:50:16;;;;;;;7.65;6.78;;;;;;;12.54;24.03;95188.38;5138352;27;20183;-68
2022/03/25 00:52:44;;;;;;;8.98;6.72;;;;;;;12.50;24.10;95181.97;5138119;27;20175;-68
2022/03/25 00:55:11;;;;;;;7.57;6.88;;;;;;;12.46;24.11;95175.56;5119934;27;20202;-68
2022/03/25 00:57:38;;;;;;;7.45;6.53;;;;;;;12.44;24.31;95180.63;5138715;27;20232;-68
2022/03/25 01:00:06;;;;;;;8.07;7.20;;;;;;;12.39;24.34;95173.44;5138009;27;20190;-67
2022/03/25 01:02:34;;;;;;;7.57;6.78;;;;;;;12.37;24.36;95181.28;5119819;27;20202;-68
2022/03/25 01:12:29;;;;;;;7.22;6.53;;;;;;;12.33;24.21;95166.56;5136259;27;20186;-68
2022/03/25 01:14:56;;;;;;;7.22;6.60;;;;;;;12.31;24.27;95170.84;5119833;27;20205;-68
2022/03/25 01:17:23;;;;;;;9.40;7.03;;;;;;;12.28;24.26;95166.88;5137258;27;20189;-68
2022/03/25 01:19:49;;;;;;;7.97;7.28;;;;;;;12.22;24.26;95160.81;5120184;27;20198;-68
2022/03/25 01:22:16;;;;;;;7.82;7.07;;;;;;;12.19;24.27;95161.53;5137258;27;20522;-68
2022/03/25 01:24:43;;;;;;;7.20;6.55;;;;;;;12.19;24.26;95157.97;5118633;27;20226;-68
2022/03/25 01:42:11;;;;;;;7.65;6.90;;;;;;;12.15;24.48;95163.41;5135806;27;20278;-68
2022/03/25 01:44:38;;;;;;;7.82;7.13;;;;;;;12.15;24.37;95168.16;5149378;27;20246;-69
2022/03/25 01:47:08;;;;;;;8.18;6.82;;;;;;;12.13;24.75;95168.53;5115784;28;20286;-68
2022/03/25 01:49:35;;;;;;;7.65;6.95;;;;;;;12.10;24.71;95176.72;5116396;28;20190;-68
2022/03/25 01:52:03;;;;;;;7.22;6.50;;;;;;;12.03;24.92;95178.16;5116465;28;20261;-68
2022/03/25 01:54:31;;;;;;;7.57;6.88;;;;;;;11.98;25.01;95185.91;5115269;28;20191;-69
2022/03/25 01:57:00;;;;;;;8.88;6.78;;;;;;;11.93;25.22;95187.00;5115145;28;20608;-69
2022/03/25 01:59:29;;;;;;;8.15;7.10;;;;;;;11.85;25.55;95181.66;5116281;28;20180;-69
2022/03/25 02:01:56;;;;;;;7.93;7.07;;;;;;;11.78;25.75;95176.72;5115810;28;20224;-69
2022/03/25 02:04:24;;;;;;;8.73;7.05;;;;;;;11.71;25.65;95182.88;5114879;28;20222;-69
2022/03/25 02:06:52;;;;;;;8.25;7.43;;;;;;;11.66;25.65;95168.56;5116188;28;20179;-69
2022/03/25 02:09:19;;;;;;;9.10;7.53;;;;;;;11.65;25.50;95177.97;5116018;28;20194;-69
2022/03/25 02:11:46;;;;;;;8.43;7.38;;;;;;;11.61;25.51;95174.34;5116334;28;20226;-69
2022/03/25 02:14:13;;;;;;;8.40;7.53;;;;;;;11.58;25.50;95167.56;5116037;28;20188;-69
2022/03/25 02:16:42;;;;;;;10.65;7.57;;;;;;;11.54;25.54;95166.66;5115730;28;20179;-69
2022/03/25 02:19:10;;;;;;;8.45;7.75;;;;;;;11.50;25.75;95169.34;5115917;28;20188;-69
2022/03/25 02:21:39;;;;;;;8.48;7.43;;;;;;;11.48;25.62;95163.38;5115633;28;20592;-69
2022/03/25 02:24:08;;;;;;;9.48;7.75;;;;;;;11.45;25.95;95168.81;5115497;28;20677;-68
2022/03/25 02:26:36;;;;;;;8.50;7.70;;;;;;;11.42;25.72;95161.25;5098054;28;20195;-68
2022/03/25 02:29:04;;;;;;;10.60;7.70;;;;;;;11.37;25.77;95161.53;5115750;28;20190;-68
2022/03/25 02:31:31;;;;;;;8.45;7.57;;;;;;;11.35;26.02;95163.81;5115849;28;20274;-68
2022/03/25 02:34:00;;;;;;;8.05;7.25;;;;;;;11.30;26.10;95157.41;5097978;28;20195;-68
2022/03/25 02:36:27;;;;;;;9.32;7.85;;;;;;;11.28;26.45;95162.47;5115536;28;20199;-68
2022/03/25 02:38:55;;;;;;;8.50;7.63;;;;;;;11.24;26.13;95160.78;5115660;28;20202;-68
2022/03/25 02:41:22;;;;;;;8.57;7.70;;;;;;;11.24;26.04;95150.53;5115665;28;20255;-69
2022/03/25 02:43:49;;;;;;;8.48;7.28;;;;;;;11.23;25.82;95154.47;5101298;28;20222;-69
2022/03/25 02:46:16;;;;;;;7.35;6.65;;;;;;;11.23;26.34;95162.75;5136377;28;20278;-69
2022/03/25 02:48:42;;;;;;;8.45;7.65;;;;;;;11.23;26.08;95157.22;5118196;28;20191;-69
2022/03/25 02:51:09;;;;;;;9.10;8.13;;;;;;;11.23;26.11;95161.94;5135861;28;20257;-68
2022/03/25 02:53:36;;;;;;;9.02;7.50;;;;;;;11.23;25.96;95161.94;5117989;28;20201;-68
2022/03/25 02:56:05;;;;;;;8.77;7.95;;;;;;;11.21;26.05;95150.44;5136140;28;20190;-68
2022/03/25 02:58:31;;;;;;;8.88;7.82;;;;;;;11.18;26.13;95157.47;5136140;28;20187;-69
2022/03/25 03:00:58;;;;;;;9.18;7.18;;;;;;;11.20;26.26;95159.88;5136219;28;20187;-69
2022/03/25 03:03:25;;;;;;;8.07;7.20;;;;;;;11.20;25.96;95157.94;5136179;28;20219;-68
2022/03/25 03:05:52;;;;;;;8.15;7.40;;;;;;;11.21;26.09;95156.75;5136166;28;20259;-68
2022/03/25 03:08:19;;;;;;;9.18;7.43;;;;;;;11.21;26.03;95150.44;5152776;27;20199;-68
2022/03/25 03:10:46;;;;;;;8.93;7.95;;;;;;;11.21;25.90;95156.75;5136179;28;20197;-68
2022/03/25 03:13:15;;;;;;;8.85;7.35;;;;;;;11.22;26.00;95152.03;5135842;28;20180;-69
2022/03/25 03:15:42;;;;;;;8.60;7.60;;;;;;;11.17;25.92;95152.31;5118012;28;20222;-69
2022/03/25 03:18:09;;;;;;;8.57;7.60;;;;;;;11.15;26.22;95151.84;5136186;28;20187;-69
2022/03/25 03:20:36;;;;;;;8.43;7.50;;;;;;;11.13;26.41;95152.22;5117592;28;20252;-68
2022/03/25 03:23:03;;;;;;;8.93;7.78;;;;;;;11.10;26.71;95158.44;5117907;28;20183;-68
2022/03/25 03:25:31;;;;;;;8.52;7.60;;;;;;;11.05;26.54;95155.97;5135813;28;20184;-68
2022/03/25 03:27:58;;;;;;;10.05;8.20;;;;;;;10.95;27.84;95160.03;5135755;28;20192;-69
2022/03/25 03:30:26;;;;;;;10.13;8.45;;;;;;;10.78;29.33;95158.41;5117818;28;20192;-69
2022/03/25 03:32:57;;;;;;;9.85;8.80;;;;;;;10.54;30.18;95164.00;5135734;28;20191;-69
2022/03/25 03:35:25;;;;;;;10.27;8.75;;;;;;;10.24;30.84;95166.22;5135431;28;20183;-69
2022/03/25 03:37:52;;;;;;;12.43;9.30;;;;;;;10.00;31.13;95165.13;5117970;28;20270;-69
2022/03/25 03:40:19;;;;;;;10.93;8.95;;;;;;;9.85;31.44;95168.59;5135522;28;20187;-69
2022/03/25 03:42:47;;;;;;;9.82;8.57;;;;;;;9.74;30.96;95170.22;5117564;28;20199;-69
2022/03/25 03:45:14;;;;;;;10.35;8.77;;;;;;;9.84;29.91;95176.06;5135543;28;20289;-69
2022/03/25 03:47:43;;;;;;;9.95;8.57;;;;;;;9.96;28.86;95166.19;5118630;27;20187;-69
2022/03/25 03:50:12;;;;;;;9.15;8.30;;;;;;;10.03;29.19;95163.66;5121411;27;20195;-69
2022/03/25 03:52:39;;;;;;;9.00;8.20;;;;;;;10.15;29.16;95171.88;5139472;27;20187;-69
2022/03/25 03:55:07;;;;;;;9.25;8.00;;;;;;;10.24;28.59;95163.47;5138888;27;20197;-69
2022/03/25 03:57:35;;;;;;;8.43;7.72;;;;;;;10.35;28.18;95167.41;5120740;27;20198;-69
2022/03/25 04:00:02;;;;;;;9.15;8.02;;;;;;;10.47;27.57;95170.13;5121329;27;20195;-69
2022/03/25 04:02:29;;;;;;;8.80;8.00;;;;;;;10.55;27.48;95171.13;5138781;27;20206;-69
2022/03/25 04:04:58;;;;;;;8.18;7.38;;;;;;;10.64;27.43;95163.50;5121160;27;20202;-69
2022/03/25 04:07:25;;;;;;;9.38;7.70;;;;;;;10.71;26.60;95169.22;5139031;27;20198;-68
2022/03/25 04:09:52;;;;;;;8.68;7.78;;;;;;;10.74;26.56;95168.50;5120895;27;20199;-68
2022/03/25 04:12:18;;;;;;;9.65;8.73;;;;;;;10.77;26.67;95161.50;5138618;27;20187;-68
2022/03/25 04:14:45;;;;;;;8.55;7.63;;;;;;;10.80;27.11;95166.31;5120630;27;20204;-68
2022/03/25 04:17:12;;;;;;;10.77;8.88;;;;;;;10.84;26.75;95167.22;5138786;27;20191;-68
2022/03/25 04:19:39;;;;;;;9.60;8.00;;;;;;;10.88;26.79;95170.06;5138835;27;20274;-68
2022/03/25 04:22:07;;;;;;;11.52;9.65;;;;;;;10.90;26.43;95173.28;5120696;27;20235;-70
2022/03/25 04:24:34;;;;;;;10.35;9.25;;;;;;;10.92;26.51;95171.75;5120647;27;20260;-69
2022/03/25 04:27:01;;;;;;;12.02;10.40;;;;;;;10.85;27.77;95171.56;5155068;27;20187;-69
2022/03/25 04:29:28;;;;;;;11.57;9.85;;;;;;;10.64;29.33;95173.72;5120562;27;20195;-69
2022/03/25 04:31:54;;;;;;;9.95;8.82;;;;;;;10.38;29.11;95180.47;5138543;27;20262;-69
2022/03/25 04:34:21;;;;;;;10.00;9.00;;;;;;;10.41;28.56;95179.78;5138694;27;20182;-69
2022/03/25 04:36:48;;;;;;;9.27;8.38;;;;;;;10.48;27.37;95174.47;5120546;27;20201;-69
2022/03/25 04:39:16;;;;;;;10.02;9.05;;;;;;;10.51;27.77;95172.97;5138009;27;20278;-69
2022/03/25 04:41:43;;;;;;;12.77;8.73;;;;;;;10.53;27.64;95189.97;5138765;27;20205;-69
2022/03/25 04:44:10;;;;;;;9.43;8.27;;;;;;;10.56;27.63;95189.25;5137770;27;20226;-69
2022/03/25 04:46:36;;;;;;;9.68;8.77;;;;;;;10.57;27.35;95186.16;5138551;27;20190;-69
2022/03/25 04:49:06;;;;;;;10.90;9.48;;;;;;;10.59;27.52;95188.56;5120082;27;20191;-69
2022/03/25 04:51:33;;;;;;;10.35;9.30;;;;;;;10.61;27.31;95189.03;5120264;27;20191;-69
2022/03/25 04:53:59;;;;;;;10.40;9.40;;;;;;;10.65;27.10;95187.19;5120534;27;20199;-69
2022/03/25 04:56:28;;;;;;;10.30;8.80;;;;;;;10.67;27.49;95186.81;5137732;27;20191;-69
2022/03/25 04:58:54;;;;;;;9.45;8.40;;;;;;;10.71;27.28;95198.75;5138077;27;20198;-69
2022/03/25 05:01:21;;;;;;;11.82;8.43;;;;;;;10.77;27.02;95189.06;5119847;27;20187;-68
2022/03/25 05:03:48;;;;;;;9.57;8.57;;;;;;;10.82;27.19;95188.81;5118531;27;20873;-70
2022/03/25 05:06:15;;;;;;;8.25;7.40;;;;;;;10.88;26.63;95183.88;5120197;27;20438;-70
2022/03/25 05:08:41;;;;;;;10.75;8.13;;;;;;;10.94;26.74;95190.75;5119905;27;20205;-70
2022/03/25 05:11:09;;;;;;;9.68;8.10;;;;;;;10.96;26.76;95193.94;5137739;27;20205;-69
2022/03/25 05:13:37;;;;;;;8.18;7.20;;;;;;;10.98;26.76;95195.19;5137709;27;20202;-70
2022/03/25 05:16:04;;;;;;;8.65;7.68;;;;;;;11.02;26.42;95196.09;5154467;27;20205;-70
2022/03/25 05:18:31;;;;;;;10.35;7.72;;;;;;;11.05;26.40;95202.88;5137492;27;20190;-70
2022/03/25 05:21:00;;;;;;;9.93;8.93;;;;;;;11.07;26.49;95197.78;5119493;27;20195;-70
2022/03/25 05:23:26;;;;;;;8.38;7.57;;;;;;;11.12;26.47;95197.56;5119367;27;20195;-70
2022/03/25 05:25:53;;;;;;;10.10;8.95;;;;;;;11.18;26.25;95193.34;5118593;27;20434;-70
2022/03/25 05:28:20;;;;;;;9.50;8.60;;;;;;;11.19;26.43;95200.50;5137354;27;20596;-68
2022/03/25 05:30:48;;;;;;;9.82;8.77;;;;;;;11.22;26.39;95197.03;5137353;27;20599;-70
2022/03/25 05:33:15;;;;;;;9.48;8.52;;;;;;;11.25;26.52;95192.75;5119355;27;20205;-70
2022/03/25 05:35:42;;;;;;;11.00;9.18;;;;;;;11.31;26.69;95194.91;5119602;27;20202;-70
2022/03/25 05:38:09;;;;;;;9.90;9.00;;;;;;;11.34;26.44;95193.41;5137315;27;20244;-70
2022/03/25 05:40:36;;;;;;;9.95;8.55;;;;;;;11.36;26.46;95198.56;5119675;27;20206;-70
2022/03/25 05:43:03;;;;;;;9.55;8.55;;;;;;;11.41;26.16;95190.81;5136779;27;20243;-70
2022/03/25 05:45:30;;;;;;;9.90;9.00;;;;;;;11.45;26.14;95201.97;5119021;27;20260;-71
2022/03/25 05:47:58;;;;;;;9.95;8.90;;;;;;;11.47;26.21;95197.66;5137023;27;20183;-70
2022/03/25 05:50:25;;;;;;;11.32;9.05;;;;;;;11.53;26.29;95195.44;5136889;27;20187;-70
2022/03/25 05:52:52;;;;;;;11.30;9.20;;;;;;;11.58;26.33;95195.19;5119036;27;20603;-70
2022/03/25 05:55:19;;;;;;;10.00;9.07;;;;;;;11.61;26.16;95202.75;5136557;27;20175;-70
2022/03/25 05:57:47;;;;;;;9.20;8.30;;;;;;;11.66;26.09;95202.50;5119034;27;20191;-71
2022/03/25 06:00:15;;;;;;;10.18;9.18;;;;;;;11.70;26.19;95205.34;5118929;27;20626;-71
2022/03/25 06:02:42;;;;;;;10.82;9.18;;;;;;;11.73;26.28;95212.94;5137400;27;20592;-70
2022/03/25 06:05:11;;;;;;;10.80;8.93;;;;;;;11.76;26.17;95212.19;5118421;27;20219;-71
2022/03/25 06:07:38;;;;;;;11.60;8.95;;;;;;;11.80;25.88;95202.84;5136693;27;20206;-70
2022/03/25 06:10:07;;;;;;;11.30;9.55;;;;;;;11.85;25.89;95204.56;5136326;27;20187;-70
2022/03/25 06:12:34;;;;;;;13.02;10.32;;;;;;;11.90;26.08;95204.28;5118612;27;20289;-70
2022/03/25 06:15:01;;;;;;;11.07;9.25;;;;;;;11.91;25.69;95203.16;5118549;28;20195;-70
2022/03/25 06:17:28;;;;;;;10.40;9.30;;;;;;;11.97;25.86;95211.97;5118488;27;20191;-70
2022/03/25 06:19:54;;;;;;;10.82;9.82;;;;;;;11.99;25.54;95202.16;5136495;27;20193;-70
2022/03/25 06:22:24;;;;;;;10.82;9.60;;;;;;;12.03;25.19;95211.34;5152951;27;20201;-70
2022/03/25 06:24:52;;;;;;;10.60;9.57;;;;;;;12.03;25.36;95214.09;5118267;27;20221;-70
2022/03/25 06:27:18;;;;;;;11.18;9.98;;;;;;;12.03;24.68;95214.09;5136498;27;20282;-70
2022/03/25 06:29:45;;;;;;;11.05;9.90;;;;;;;12.07;25.25;95227.22;5136340;27;20186;-70
2022/03/25 06:32:12;;;;;;;11.07;9.95;;;;;;;12.10;25.14;95223.72;5118564;27;20496;-68
2022/03/25 06:34:39;;;;;;;10.82;9.88;;;;;;;12.10;24.96;95227.28;5136235;27;20186;-69
2022/03/25 06:37:05;;;;;;;11.63;10.57;;;;;;;12.13;24.92;95221.03;5136555;27;20191;-69
2022/03/25 06:39:34;;;;;;;12.07;10.98;;;;;;;12.19;24.80;95227.09;5118654;27;20198;-69
2022/03/25 06:42:01;;;;;;;12.63;11.48;;;;;;;12.22;24.73;95218.06;5118510;28;20575;-69
2022/03/25 06:44:28;;;;;;;14.02;11.30;;;;;;;12.27;24.86;95220.56;5114976;28;20241;-70
2022/03/25 06:46:54;;;;;;;12.48;11.18;;;;;;;12.32;25.20;95225.03;5114835;28;20204;-70
2022/03/25 06:49:22;;;;;;;12.15;11.15;;;;;;;12.34;24.75;95239.28;5115405;28;20205;-70
2022/03/25 06:51:49;;;;;;;12.32;11.23;;;;;;;12.33;24.98;95230.19;5115795;28;20199;-70
2022/03/25 06:54:16;;;;;;;14.43;11.68;;;;;;;12.35;24.80;95250.00;5115428;28;20188;-69
2022/03/25 06:56:45;;;;;;;15.77;12.23;;;;;;;12.36;25.02;95225.91;5114601;28;20195;-69
2022/03/25 06:59:12;;;;;;;12.52;11.32;;;;;;;12.41;24.86;95239.44;5114798;28;20300;-68
2022/03/25 07:01:39;;;;;;;13.00;11.63;;;;;;;12.45;24.98;95234.78;5115869;28;20197;-68
2022/03/25 07:04:07;;;;;;;12.60;11.40;;;;;;;12.43;24.73;95235.16;5115341;28;20596;-69
2022/03/25 07:06:35;;;;;;;14.30;12.80;;;;;;;12.47;24.86;95229.72;5115695;28;20207;-70
2022/03/25 07:09:03;;;;;;;14.30;13.00;;;;;;;12.50;25.04;95240.06;5114709;28;20441;-69
2022/03/25 07:11:30;;;;;;;12.88;11.68;;;;;;;12.52;24.84;95241.28;5116229;28;20451;-69
2022/03/25 07:13:59;;;;;;;13.05;11.35;;;;;;;12.57;24.84;95242.19;5115575;28;20191;-70
2022/03/25 07:16:26;;;;;;;13.77;12.30;;;;;;;12.62;25.16;95242.69;5114494;28;20183;-70
2022/03/25 07:18:52;;;;;;;13.52;12.13;;;;;;;12.68;25.14;95238.50;5114517;28;20204;-70
2022/03/25 07:21:20;;;;;;;14.05;12.60;;;;;;;12.72;24.86;95242.13;5114487;28;20203;-70
2022/03/25 07:23:47;;;;;;;15.32;12.18;;;;;;;12.76;25.00;95236.66;5100470;28;20200;-70
2022/03/25 07:26:14;;;;;;;14.20;12.80;;;;;;;12.80;24.66;95240.31;5101249;28;20227;-70
2022/03/25 07:28:40;;;;;;;14.73;13.30;;;;;;;12.81;24.77;95247.44;5118464;28;20421;-69
2022/03/25 07:31:09;;;;;;;13.25;12.02;;;;;;;12.83;24.86;95239.59;5101032;28;20202;-69
2022/03/25 07:33:36;;;;;;;13.70;12.27;;;;;;;12.92;24.77;95236.59;5101248;28;20203;-67
2022/03/25 07:36:02;;;;;;;14.30;12.18;;;;;;;13.01;24.95;95239.97;5118995;28;20499;-70
2022/03/25 07:38:29;;;;;;;13.68;12.32;;;;;;;13.08;24.83;95244.84;5118523;28;20191;-70
2022/03/25 07:40:57;;;;;;;14.38;11.98;;;;;;;13.14;25.36;95238.63;5118363;28;20526;-70
2022/03/25 07:43:24;;;;;;;13.30;11.93;;;;;;;13.24;24.86;95248.34;5125124;27;20219;-70
2022/03/25 07:45:50;;;;;;;13.10;11.80;;;;;;;13.28;24.50;95234.59;5139924;27;20210;-69
2022/03/25 07:48:19;;;;;;;14.00;12.38;;;;;;;13.32;24.69;95241.78;5121607;27;20198;-69
2022/03/25 07:50:49;;;;;;;13.10;11.70;;;;;;;13.41;24.59;95242.38;5139691;27;20199;-69
2022/03/25 07:53:17;;;;;;;14.25;12.82;;;;;;;13.47;24.75;95245.63;5139219;27;20598;-71
2022/03/25 07:55:44;;;;;;;13.25;11.65;;;;;;;13.58;24.68;95235.56;5121704;27;20281;-69
2022/03/25 07:58:11;;;;;;;15.68;11.60;;;;;;;13.67;24.57;95249.97;5139076;27;20191;-69
2022/03/25 08:00:39;;;;;;;15.10;12.13;;;;;;;13.72;24.51;95243.31;5121458;27;20202;-69
2022/03/25 08:03:07;;;;;;;16.27;11.53;;;;;;;13.79;24.35;95245.41;5121519;27;20106;-69
2022/03/25 08:05:35;;;;;;;13.18;11.85;;;;;;;13.84;25.33;95256.22;5137819;27;20866;-69
2022/03/25 08:08:03;;;;;;;19.88;12.07;;;;;;;13.91;23.83;95248.03;5139104;27;20548;-69
2022/03/25 08:10:30;;;;;;;16.55;12.48;;;;;;;13.99;23.91;95243.41;5139171;27;20183;-69
2022/03/25 08:12:58;;;;;;;17.50;11.50;;;;;;;14.03;24.09;95241.47;5121914;27;20191;-69
2022/03/25 08:15:25;;;;;;;13.25;11.38;;;;;;;14.07;23.88;95250.66;5121352;27;20203;-69
2022/03/25 08:17:55;;;;;;;13.77;12.20;;;;;;;14.12;24.00;95247.56;5120360;27;20454;-69
2022/03/25 08:54:35;;;;;;;20.08;11.45;;;;;;;14.88;22.82;95225.31;5116531;28;20689;-67
2022/03/25 08:57:02;;;;;;;12.32;10.98;;;;;;;14.95;23.14;95219.06;5100520;28;20515;-67
2022/03/25 08:59:29;;;;;;;12.65;11.32;;;;;;;15.08;22.78;95232.34;5117316;28;20260;-67
2022/03/25 09:01:56;;;;;;;20.20;12.18;;;;;;;15.17;22.86;95216.16;5119995;27;20206;-67
2022/03/25 09:04:22;;;;;;;13.82;10.77;;;;;;;15.30;22.26;95232.59;5138124;27;20183;-67
2022/03/25 09:06:49;;;;;;;11.57;10.40;;;;;;;15.44;22.41;95221.63;5119952;27;20210;-67
2022/03/25 09:09:16;;;;;;;13.90;10.60;;;;;;;15.56;22.88;95221.38;5137707;27;20195;-67
2022/03/25 09:11:44;;;;;;;13.30;10.40;;;;;;;15.68;22.26;95214.75;5119848;27;20207;-67
2022/03/25 09:14:11;;;;;;;12.05;9.48;;;;;;;15.76;22.21;95213.66;5137708;27;20573;-67
2022/03/25 09:16:38;;;;;;;14.18;10.68;;;;;;;15.80;21.55;95208.13;5137560;27;20187;-67
2022/03/25 09:19:05;;;;;;;15.30;10.60;;;;;;;15.84;21.91;95206.19;5119765;27;20232;-67
2022/03/25 09:21:32;;;;;;;11.68;9.88;;;;;;;15.97;21.92;95207.47;5138102;27;20190;-67
2022/03/25 09:23:59;;;;;;;12.68;10.32;;;;;;;16.06;21.07;95213.53;5119693;27;20193;-67
2022/03/25 09:26:26;;;;;;;11.43;10.23;;;;;;;16.15;21.25;95202.06;5119512;27;20226;-67
2022/03/25 09:28:54;;;;;;;11.38;9.65;;;;;;;16.24;20.97;95199.75;5137265;27;20195;-66
2022/03/25 09:31:21;;;;;;;10.32;9.32;;;;;;;16.24;20.74;95205.31;5137690;27;20193;-66
2022/03/25 09:33:47;;;;;;;13.98;9.55;;;;;;;16.29;20.54;95190.25;5137728;27;20202;-66
2022/03/25 09:36:14;;;;;;;12.48;9.60;;;;;;;16.36;20.37;95213.34;5119406;27;20223;-66
2022/03/25 09:38:41;;;;;;;10.57;9.43;;;;;;;16.44;20.31;95207.84;5137069;27;20285;-66
2022/03/25 09:41:09;;;;;;;11.18;9.70;;;;;;;16.57;20.54;95204.34;5137552;27;20183;-66
2022/03/25 09:43:37;;;;;;;11.77;9.20;;;;;;;16.66;20.28;95201.22;5138070;27;20198;-66
2022/03/25 10:04:45;;;;;;;9.98;8.35;;;;;;;17.23;18.97;95184.00;5074148;28;20649;-66
2022/03/25 10:07:17;;;;;;;8.87;7.77;;;;;;;17.31;18.64;95188.41;5056889;28;20965;-66
2022/03/25 10:09:43;;;;;;;18.52;8.95;;;;;;;17.38;18.71;95194.00;5073083;28;20431;-66
2022/03/25 10:15:51;;;;;;;8.27;7.43;;;;;;;17.64;18.62;95186.50;5074076;28;20223;-66
2022/03/25 10:18:19;;;;;;;8.07;7.28;;;;;;;17.83;19.06;95188.13;5057797;28;20599;-66
2022/03/25 10:21:05;;;;;;;10.10;6.72;;;;;;;17.79;19.05;95188.13;5087997;28;20212;-66
2022/03/25 10:23:31;;;;;;;8.20;6.65;;;;;;;18.01;19.31;95188.94;5107994;28;20204;-66
2022/03/25 10:26:00;;;;;;;8.55;7.65;;;;;;;18.16;19.19;95181.41;5096820;28;20428;-66
2022/03/25 10:28:28;;;;;;;7.90;6.32;;;;;;;18.35;18.06;95185.78;5098209;28;20207;-66
2022/03/25 10:30:57;;;;;;;8.20;7.38;;;;;;;18.56;18.38;95174.56;5115807;28;20187;-66
2022/03/25 10:33:28;;;;;;;7.72;6.93;;;;;;;18.55;17.42;95172.16;5115759;28;20186;-66
2022/03/25 10:35:56;;;;;;;8.82;6.80;;;;;;;18.64;17.11;95166.97;5098280;28;20191;-66
2022/03/25 10:38:26;;;;;;;11.43;7.38;;;;;;;18.62;17.65;95178.53;5116118;28;20251;-66
2022/03/25 10:40:54;;;;;;;9.57;7.53;;;;;;;18.71;17.32;95175.38;5097915;28;20205;-66
2022/03/25 10:43:21;;;;;;;13.38;8.63;;;;;;;18.82;17.13;95164.16;5115642;28;20520;-66
2022/03/25 10:46:06;;;;;;;7.20;6.60;;;;;;;18.83;17.05;95174.91;5115957;28;20212;-67
2022/03/25 10:48:33;;;;;;;7.47;6.78;;;;;;;18.76;18.52;95156.16;5098100;28;20198;-67
2022/03/25 10:51:05;;;;;;;9.00;7.20;;;;;;;18.89;17.16;95162.13;5117275;28;20183;-66
2022/03/25 10:53:34;;;;;;;8.30;6.55;;;;;;;19.14;17.64;95162.03;5116105;28;20180;-66
2022/03/25 10:56:03;;;;;;;9.68;7.22;;;;;;;19.43;17.49;95168.28;5116017;28;20686;-66
2022/03/25 10:58:30;;;;;;;8.95;7.07;;;;;;;19.61;16.75;95168.19;5120157;28;20198;-67
2022/03/25 11:00:58;;;;;;;8.07;7.28;;;;;;;19.68;16.66;95151.38;5120311;28;20188;-66
2022/03/25 11:03:25;;;;;;;8.23;7.40;;;;;;;19.65;16.97;95143.81;5119708;28;20199;-67
2022/03/25 11:05:52;;;;;;;8.00;7.15;;;;;;;19.63;16.42;95159.41;5107636;28;20242;-67
2022/03/25 11:08:19;;;;;;;7.43;6.72;;;;;;;19.73;16.51;95152.16;5099228;28;20199;-67
2022/03/25 11:10:47;;;;;;;8.88;7.22;;;;;;;19.62;16.87;95146.59;5099392;28;20188;-65
2022/03/25 11:13:14;;;;;;;8.35;6.97;;;;;;;19.65;16.24;95141.00;5099196;28;20196;-65
2022/03/25 11:15:41;;;;;;;9.35;7.50;;;;;;;19.86;16.63;95151.25;5099176;28;20207;-65
2022/03/25 11:18:08;;;;;;;7.80;7.10;;;;;;;20.06;16.10;95139.50;5081458;28;20196;-66
2022/03/25 11:20:35;;;;;;;11.20;6.57;;;;;;;20.13;16.58;95136.66;5081068;28;20200;-65
2022/03/25 11:23:07;;;;;;;7.75;7.05;;;;;;;20.21;17.00;95138.16;5081337;28;20199;-65
2022/03/25 11:29:17;;;;;;;8.95;6.70;;;;;;;20.36;15.86;95144.44;5099088;28;20175;-65
2022/03/25 11:32:04;;;;;;;8.70;6.70;;;;;;;20.14;15.84;95138.22;5098717;28;20187;-65
2022/03/25 11:35:17;;;;;;;8.20;7.22;;;;;;;20.41;16.40;95132.78;5098577;28;20191;-66
2022/03/25 11:38:18;;;;;;;9.82;7.32;;;;;;;20.61;15.51;95133.00;5110730;28;20440;-65
2022/03/25 11:41:21;;;;;;;7.55;6.82;;;;;;;20.56;15.25;95128.66;5117887;28;20435;-66
2022/03/25 11:44:24;;;;;;;7.97;7.18;;;;;;;20.67;16.02;95126.53;5119318;28;20657;-65
2022/03/25 11:47:17;;;;;;;7.57;6.10;;;;;;;20.88;14.95;95127.53;5118331;28;20428;-67
2022/03/25 11:50:27;;;;;;;7.57;6.88;;;;;;;21.01;14.64;95127.75;5118882;28;20179;-67
2022/03/25 11:52:54;;;;;;;6.78;6.13;;;;;;;20.80;15.08;95109.97;5118953;28;20184;-67
2022/03/25 11:55:21;;;;;;;7.18;6.22;;;;;;;21.03;15.69;95117.72;5119137;28;20255;-68
2022/03/25 11:58:15;;;;;;;6.90;6.20;;;;;;;21.19;15.09;95124.72;5118293;28;20184;-68
2022/03/25 12:00:45;;;;;;;7.55;6.47;;;;;;;21.25;15.05;95123.06;5100633;28;20203;-68
2022/03/25 12:03:13;;;;;;;6.80;5.53;;;;;;;21.18;14.57;95120.34;5118643;28;20195;-68
2022/03/25 12:05:39;;;;;;;7.10;6.35;;;;;;;21.16;14.56;95120.75;5110578;27;20325;-68
2022/03/25 12:08:27;;;;;;;6.10;5.15;;;;;;;21.27;14.67;95118.59;5119966;28;20207;-68
2022/03/25 12:10:54;;;;;;;6.25;5.40;;;;;;;21.55;15.42;95123.06;5121043;27;20195;-66
2022/03/25 12:13:22;;;;;;;6.68;5.28;;;;;;;21.61;15.20;95124.19;5138859;27;20198;-66
2022/03/25 12:15:52;;;;;;;7.35;5.20;;;;;;;21.80;14.50;95127.50;5139178;27;20656;-66
2022/03/25 12:29:29;;;;;;;4.60;4.18;;;;;;;22.54;13.52;95107.81;5145829;27;20178;-68
2022/03/25 12:31:57;;;;;;;7.95;4.57;;;;;;;22.67;12.99;95113.63;5120407;27;20195;-68
2022/03/25 12:34:29;;;;;;;5.28;4.78;;;;;;;22.53;12.78;95107.03;5138766;27;20251;-69
2022/03/25 12:44:28;;;;;;;8.55;5.10;;;;;;;22.23;12.80;95110.78;5138154;27;20174;-69
2022/03/25 12:47:00;;;;;;;6.68;4.57;;;;;;;22.41;11.67;95106.88;5138585;27;20206;-68
2022/03/25 12:49:27;;;;;;;5.35;4.85;;;;;;;22.46;12.10;95109.97;5138522;27;20187;-68
2022/03/25 13:03:10;;;;;;;7.85;5.45;;;;;;;22.48;11.86;95106.75;5137059;27;20679;-69
2022/03/25 13:05:38;;;;;;;6.75;4.57;;;;;;;22.62;11.23;95108.47;5119711;27;20239;-69
2022/03/25 13:08:42;;;;;;;7.15;4.78;;;;;;;22.65;11.61;95099.19;5138189;27;20207;-68
2022/03/25 13:11:27;;;;;;;5.72;5.03;;;;;;;22.92;11.69;95096.28;5138071;27;20194;-68
2022/03/25 15:06:13;;;;;;;15.27;11.85;;;;;;;20.58;12.33;95159.84;5120631;27;20233;-67
2022/03/25 15:08:42;;;;;;;14.77;11.88;;;;;;;20.45;12.25;95155.97;5153361;27;20533;-66
2022/03/25 15:11:10;;;;;;;13.43;10.35;;;;;;;20.36;12.32;95155.63;5138714;27;20206;-67
2022/03/25 15:13:37;;;;;;;17.05;11.60;;;;;;;20.08;12.61;95156.66;5156816;27;20277;-67
2022/03/25 15:16:05;;;;;;;14.93;10.57;;;;;;;19.84;13.09;95158.47;5156836;27;20226;-67
2022/03/25 15:18:31;;;;;;;10.98;9.85;;;;;;;19.73;12.86;95169.75;5156835;27;20179;-66
2022/03/25 15:20:58;;;;;;;11.45;9.43;;;;;;;19.41;12.91;95162.28;5157052;27;20208;-66